createdAt,value
2017-09-08T00:00:45.011Z,18.45
2017-09-08T00:03:12.445Z,14.10
2017-09-08T00:05:39.880Z,11.18
2017-09-08T00:08:07.311Z,15.73
2017-09-08T00:10:34.743Z,17.15
2017-09-08T00:13:02.184Z,18.67
2017-09-08T00:15:31.192Z,13.68
2017-09-08T00:17:58.634Z,16.40
2017-09-08T00:20:26.060Z,19.37
2017-09-08T00:22:53.492Z,11.82
2017-09-08T00:25:20.919Z,14.20
2017-09-08T00:27:48.355Z,10.18
2017-09-08T00:30:16.560Z,11.85
2017-09-08T00:32:43.995Z,13.73
2017-09-08T00:35:12.202Z,15.55
2017-09-08T00:37:39.623Z,13.75
2017-09-08T00:40:07.821Z,17.30
2017-09-08T00:42:35.250Z,18.73
2017-09-08T00:45:03.450Z,29.42
2017-09-08T00:47:30.879Z,12.40
2017-09-08T00:49:59.081Z,13.68
2017-09-08T00:52:26.519Z,12.15
2017-09-08T00:54:54.721Z,17.48
2017-09-08T00:57:22.157Z,11.35
2017-09-08T00:59:50.348Z,13.98
2017-09-08T01:02:17.784Z,13.52
2017-09-08T01:04:45.980Z,14.77
2017-09-08T01:07:13.416Z,12.23
2017-09-08T01:09:41.611Z,14.18
2017-09-08T01:12:09.047Z,13.13
2017-09-08T01:14:37.247Z,9.40
2017-09-08T01:17:04.680Z,14.60
2017-09-08T01:19:32.880Z,12.95
2017-09-08T01:22:00.308Z,16.08
2017-09-08T01:24:28.512Z,14.10
2017-09-08T01:26:55.942Z,9.95
2017-09-08T01:29:24.143Z,15.93
2017-09-08T01:31:51.571Z,13.65
2017-09-08T01:34:18.999Z,19.25
2017-09-08T01:36:46.428Z,12.23
2017-09-08T01:39:13.862Z,11.55
2017-09-08T01:41:41.296Z,12.85
2017-09-08T01:44:08.735Z,11.68
2017-09-08T01:46:36.162Z,15.40
2017-09-08T01:49:03.604Z,20.95
2017-09-08T01:51:31.035Z,13.85
2017-09-08T01:53:59.242Z,15.02
2017-09-08T01:56:26.672Z,14.07
2017-09-08T01:58:54.881Z,16.12
2017-09-08T02:01:22.312Z,12.35
2017-09-08T02:03:50.507Z,17.17
2017-09-08T02:06:17.936Z,10.70
2017-09-08T02:08:46.146Z,10.90
2017-09-08T02:11:13.576Z,12.23
2017-09-08T02:13:41.779Z,10.77
2017-09-08T02:16:09.216Z,14.00
2017-09-08T02:18:36.652Z,9.43
2017-09-08T02:21:04.089Z,16.83
2017-09-08T02:23:31.517Z,9.38
2017-09-08T02:25:58.953Z,12.80
2017-09-08T02:28:26.384Z,11.43
2017-09-08T02:30:54.595Z,10.43
2017-09-08T02:33:22.020Z,12.23
2017-09-08T02:35:50.223Z,8.98
2017-09-08T02:38:17.655Z,18.17
2017-09-08T02:40:45.870Z,11.00
2017-09-08T02:43:13.302Z,16.87
2017-09-08T02:45:40.735Z,18.60
2017-09-08T02:48:08.164Z,14.70
2017-09-08T02:50:35.598Z,17.35
2017-09-08T02:53:03.031Z,10.38
2017-09-08T02:55:31.239Z,12.73
2017-09-08T02:57:58.680Z,12.60
2017-09-08T03:00:26.111Z,10.27
2017-09-08T03:02:54.300Z,9.68
2017-09-08T03:05:21.736Z,14.98
2017-09-08T03:07:49.935Z,15.75
2017-09-08T03:10:17.379Z,11.48
2017-09-08T03:12:45.580Z,8.48
2017-09-08T03:15:13.012Z,15.23
2017-09-08T03:17:41.207Z,10.60
2017-09-08T03:20:08.667Z,12.05
2017-09-08T03:22:36.099Z,18.35
2017-09-08T03:25:04.299Z,17.73
2017-09-08T03:27:31.732Z,13.73
2017-09-08T03:29:59.928Z,13.88
2017-09-08T03:32:27.355Z,9.55
2017-09-08T03:34:54.783Z,14.82
2017-09-08T03:37:22.224Z,14.55
2017-09-08T03:39:49.659Z,11.63
2017-09-08T03:42:17.087Z,13.23
2017-09-08T03:44:45.282Z,13.15
2017-09-08T03:47:12.722Z,9.70
2017-09-08T03:49:40.147Z,12.32
2017-09-08T03:52:07.575Z,15.32
2017-09-08T03:54:35.003Z,12.32
2017-09-08T03:57:03.203Z,13.20
2017-09-08T03:59:30.635Z,24.42
2017-09-08T04:01:58.833Z,10.80
2017-09-08T04:04:26.268Z,8.13
2017-09-08T04:06:54.467Z,11.43
2017-09-08T04:09:21.895Z,14.18
2017-09-08T04:11:50.107Z,12.63
2017-09-08T04:14:17.533Z,13.90
2017-09-08T04:16:45.740Z,11.07
2017-09-08T04:19:13.173Z,11.80
2017-09-08T04:21:41.363Z,13.52
2017-09-08T04:24:08.799Z,15.18
2017-09-08T04:26:36.999Z,12.82
2017-09-08T04:29:04.445Z,14.65
2017-09-08T04:31:32.640Z,9.55
2017-09-08T04:34:00.066Z,11.40
2017-09-08T04:36:28.264Z,17.83
2017-09-08T04:38:55.700Z,18.83
2017-09-08T04:41:23.892Z,11.55
2017-09-08T04:43:51.327Z,15.63
2017-09-08T04:46:20.460Z,13.90
2017-09-08T04:48:47.899Z,11.57
2017-09-08T04:51:15.323Z,11.57
2017-09-08T04:53:42.756Z,13.00
2017-09-08T04:56:10.184Z,14.63
2017-09-08T04:58:37.627Z,12.35
2017-09-08T05:01:05.823Z,15.68
2017-09-08T05:03:33.259Z,11.70
2017-09-08T05:06:00.696Z,10.27
2017-09-08T05:08:28.132Z,12.90
2017-09-08T05:10:55.560Z,14.40
2017-09-08T05:13:22.999Z,12.30
2017-09-08T05:15:50.427Z,18.62
2017-09-08T05:18:18.636Z,9.35
2017-09-08T05:20:46.069Z,11.20
2017-09-08T05:23:13.521Z,10.77
2017-09-08T05:25:41.715Z,16.42
2017-09-08T05:28:09.143Z,12.93
2017-09-08T05:30:36.586Z,12.25
2017-09-08T05:33:04.002Z,8.00
2017-09-08T05:35:31.426Z,12.30
2017-09-08T05:37:59.659Z,12.60
2017-09-08T05:40:27.056Z,8.52
2017-09-08T05:42:55.259Z,9.98
2017-09-08T05:45:22.691Z,14.82
2017-09-08T05:47:50.896Z,10.90
2017-09-08T05:50:18.326Z,10.38
2017-09-08T05:52:46.528Z,12.55
2017-09-08T05:55:13.961Z,9.93
2017-09-08T05:57:42.155Z,6.35
2017-09-08T06:00:09.599Z,11.27
2017-09-08T06:02:37.037Z,7.80
2017-09-08T06:05:04.466Z,12.37
2017-09-08T06:07:31.909Z,13.90
2017-09-08T06:09:59.347Z,7.32
2017-09-08T06:12:27.545Z,7.15
2017-09-08T06:14:54.985Z,8.27
2017-09-08T06:17:23.187Z,8.95
2017-09-08T06:19:50.622Z,12.10
2017-09-08T06:22:18.052Z,7.25
2017-09-08T06:24:45.510Z,10.27
2017-09-08T06:27:13.723Z,10.35
2017-09-08T06:29:41.163Z,6.57
2017-09-08T06:32:09.376Z,10.70
2017-09-08T06:34:36.823Z,12.13
2017-09-08T06:37:04.277Z,9.33
2017-09-08T06:39:31.710Z,5.33
2017-09-08T06:41:59.153Z,8.10
2017-09-08T06:44:26.583Z,4.57
2017-09-08T06:46:54.073Z,7.90
2017-09-08T06:49:21.506Z,5.73
2017-09-08T06:51:48.956Z,8.53
2017-09-08T06:54:16.393Z,8.33
2017-09-08T06:56:43.828Z,10.70
2017-09-08T06:59:11.259Z,7.27
2017-09-08T07:01:38.704Z,9.93
2017-09-08T07:04:06.143Z,6.67
2017-09-08T07:06:33.588Z,10.07
2017-09-08T07:09:01.017Z,5.90
2017-09-08T07:11:28.455Z,8.30
2017-09-08T07:13:55.892Z,12.23
2017-09-08T07:16:23.339Z,6.17
2017-09-08T07:18:50.775Z,5.83
2017-09-08T07:21:18.235Z,10.57
2017-09-08T07:23:45.664Z,4.93
2017-09-08T07:26:13.099Z,6.40
2017-09-08T07:28:41.310Z,8.33
2017-09-08T07:31:08.739Z,10.67
2017-09-08T07:33:36.984Z,6.13
2017-09-08T07:36:04.405Z,6.67
2017-09-08T07:38:31.835Z,5.27
2017-09-08T07:41:00.031Z,5.60
2017-09-08T07:43:27.493Z,5.43
2017-09-08T07:45:54.925Z,6.97
2017-09-08T07:48:23.120Z,5.00
2017-09-08T07:50:50.555Z,7.70
2017-09-08T07:53:18.764Z,8.43
2017-09-08T07:55:46.197Z,6.50
2017-09-08T07:58:14.400Z,8.83
2017-09-08T08:00:41.827Z,8.80
2017-09-08T08:03:09.275Z,4.40
2017-09-08T08:05:37.476Z,11.63
2017-09-08T08:08:04.907Z,9.17
2017-09-08T08:10:33.108Z,7.57
2017-09-08T08:13:00.591Z,5.63
2017-09-08T08:15:28.029Z,12.57
2017-09-08T08:17:55.462Z,9.53
2017-09-08T08:20:23.683Z,11.83
2017-09-08T08:22:51.156Z,8.27
2017-09-08T08:25:18.599Z,10.13
2017-09-08T08:27:46.051Z,9.10
2017-09-08T08:30:13.498Z,10.40
2017-09-08T08:32:40.932Z,5.67
2017-09-08T08:35:09.142Z,8.67
2017-09-08T08:37:36.575Z,14.63
2017-09-08T08:40:04.023Z,6.80
2017-09-08T08:42:31.458Z,6.87
2017-09-08T08:44:58.894Z,11.20
2017-09-08T08:47:26.331Z,11.07
2017-09-08T08:49:53.771Z,7.30
2017-09-08T08:52:21.211Z,8.07
2017-09-08T08:54:48.656Z,6.27
2017-09-08T08:57:16.091Z,12.70
2017-09-08T08:59:43.532Z,7.90
2017-09-08T09:02:10.968Z,14.73
2017-09-08T09:04:38.408Z,6.43
2017-09-08T09:07:05.848Z,10.93
2017-09-08T09:09:34.060Z,9.17
2017-09-08T09:12:01.495Z,12.43
2017-09-08T09:14:28.940Z,9.10
2017-09-08T09:16:56.395Z,9.70
2017-09-08T09:19:23.836Z,8.57
2017-09-08T09:21:51.268Z,11.77
2017-09-08T09:24:18.715Z,8.33
2017-09-08T09:26:46.155Z,6.13
2017-09-08T09:29:13.605Z,9.90
2017-09-08T09:31:41.044Z,11.17
2017-09-08T09:34:08.484Z,12.07
2017-09-08T09:36:35.928Z,10.77
2017-09-08T09:39:03.359Z,11.80
2017-09-08T09:41:30.810Z,10.10
2017-09-08T09:43:58.247Z,11.93
2017-09-08T09:46:25.690Z,14.17
2017-09-08T09:48:53.136Z,10.77
2017-09-08T09:51:21.351Z,11.40
2017-09-08T09:53:48.788Z,7.57
2017-09-08T09:56:16.991Z,10.60
2017-09-08T09:58:44.427Z,8.50
2017-09-08T10:01:11.868Z,6.00
2017-09-08T10:03:39.306Z,9.73
2017-09-08T10:06:06.750Z,10.73
2017-09-08T10:08:34.195Z,14.20
2017-09-08T10:11:01.636Z,11.37
2017-09-08T10:13:29.072Z,9.53
2017-09-08T10:15:56.516Z,8.83
2017-09-08T10:18:23.956Z,17.43
2017-09-08T10:20:51.404Z,7.20
2017-09-08T10:23:18.843Z,10.20
2017-09-08T10:25:46.288Z,13.40
2017-09-08T10:28:13.732Z,10.03
2017-09-08T10:30:41.187Z,7.23
2017-09-08T10:33:08.632Z,8.80
2017-09-08T10:35:36.063Z,10.93
2017-09-08T10:38:03.515Z,12.20
2017-09-08T10:40:30.952Z,6.20
2017-09-08T10:42:58.388Z,9.37
2017-09-08T10:45:25.824Z,9.00
2017-09-08T10:47:53.262Z,8.03
2017-09-08T10:50:21.464Z,9.77
2017-09-08T10:52:54.712Z,9.30
2017-09-08T10:55:22.142Z,8.13
2017-09-08T10:57:49.591Z,10.00
2017-09-08T11:00:17.036Z,10.63
2017-09-08T11:02:44.480Z,10.63
2017-09-08T11:05:11.926Z,6.33
2017-09-08T11:07:40.128Z,7.50
2017-09-08T11:10:07.559Z,10.57
2017-09-08T11:12:35.771Z,12.73
2017-09-08T11:15:03.209Z,8.90
2017-09-08T11:17:30.648Z,14.90
2017-09-08T11:19:58.852Z,11.33
2017-09-08T11:22:26.290Z,6.47
2017-09-08T11:24:53.732Z,12.07
2017-09-08T11:27:21.934Z,9.30
2017-09-08T11:29:49.380Z,17.70
2017-09-08T11:32:17.593Z,9.17
2017-09-08T11:34:50.731Z,10.23
2017-09-08T11:37:18.944Z,12.10
2017-09-08T11:39:46.381Z,5.70
2017-09-08T11:42:13.823Z,12.00
2017-09-08T11:44:41.256Z,9.03
2017-09-08T11:47:08.700Z,9.53
2017-09-08T11:49:36.130Z,6.17
2017-09-08T11:52:03.583Z,10.83
2017-09-08T11:54:31.018Z,9.87
2017-09-08T11:56:58.459Z,7.77
2017-09-08T11:59:25.894Z,10.40
2017-09-08T12:01:53.337Z,9.60
2017-09-08T12:04:20.776Z,8.10
2017-09-08T12:06:48.224Z,7.63
2017-09-08T12:09:15.656Z,9.17
2017-09-08T12:11:43.106Z,10.23
2017-09-08T12:14:10.544Z,10.97
2017-09-08T12:16:37.988Z,9.10
2017-09-08T12:19:05.423Z,8.30
2017-09-08T12:21:33.640Z,12.60
2017-09-08T12:24:01.840Z,12.13
2017-09-08T12:26:29.295Z,16.03
2017-09-08T12:28:56.740Z,11.17
2017-09-08T12:31:24.172Z,9.23
2017-09-08T12:33:51.614Z,5.33
2017-09-08T12:36:19.043Z,8.47
2017-09-08T12:38:47.251Z,11.77
2017-09-08T12:41:14.701Z,11.03
2017-09-08T12:43:42.906Z,6.17
2017-09-08T12:46:10.343Z,8.90
2017-09-08T12:48:37.793Z,10.97
2017-09-08T12:51:05.229Z,10.30
2017-09-08T12:53:32.676Z,6.37
2017-09-08T12:56:00.880Z,10.47
2017-09-08T12:58:28.333Z,10.70
2017-09-08T13:00:55.761Z,9.80
2017-09-08T13:03:23.205Z,8.87
2017-09-08T13:05:50.635Z,8.23
2017-09-08T13:08:18.075Z,8.20
2017-09-08T13:10:45.513Z,5.60
2017-09-08T13:13:12.959Z,12.80
2017-09-08T13:15:41.176Z,17.13
2017-09-08T13:18:08.618Z,9.50
2017-09-08T13:20:36.051Z,8.43
2017-09-08T13:23:04.256Z,8.53
2017-09-08T13:25:31.691Z,9.23
2017-09-08T13:27:59.132Z,9.80
2017-09-08T13:30:27.332Z,6.83
2017-09-08T13:32:54.787Z,8.30
2017-09-08T13:35:22.224Z,9.40
2017-09-08T13:37:50.446Z,11.50
2017-09-08T13:40:17.871Z,9.27
2017-09-08T13:42:45.304Z,7.67
2017-09-08T13:45:12.747Z,8.23
2017-09-08T13:47:40.185Z,8.27
2017-09-08T13:50:07.633Z,10.37
2017-09-08T13:52:35.071Z,11.03
2017-09-08T13:55:02.506Z,7.87
2017-09-08T13:57:29.950Z,10.17
2017-09-08T13:59:57.389Z,6.63
2017-09-08T14:02:24.827Z,8.47
2017-09-08T14:04:52.273Z,10.00
2017-09-08T14:07:19.715Z,10.00
2017-09-08T14:09:47.176Z,14.17
2017-09-08T14:12:14.601Z,7.77
2017-09-08T14:14:42.040Z,8.10
2017-09-08T14:17:09.479Z,9.07
2017-09-08T14:19:36.919Z,13.87
2017-09-08T14:22:04.348Z,8.10
2017-09-08T14:24:32.588Z,8.40
2017-09-08T14:27:00.036Z,10.37
2017-09-08T14:29:27.472Z,13.30
2017-09-08T14:31:54.911Z,10.60
2017-09-08T14:34:22.354Z,18.23
2017-09-08T14:36:50.564Z,19.57
2017-09-08T14:39:18.000Z,9.90
2017-09-08T14:41:45.445Z,11.17
2017-09-08T14:44:13.643Z,9.90
2017-09-08T14:46:41.088Z,7.80
2017-09-08T14:49:09.283Z,13.37
2017-09-08T14:51:36.729Z,11.07
2017-09-08T14:54:04.173Z,8.67
2017-09-08T14:56:32.368Z,9.27
2017-09-08T14:58:59.808Z,12.43
2017-09-08T15:01:27.243Z,9.63
2017-09-08T15:03:54.683Z,13.13
2017-09-08T15:06:22.132Z,20.03
2017-09-08T15:08:49.576Z,9.57
2017-09-08T15:11:17.011Z,11.70
2017-09-08T15:13:44.452Z,8.83
2017-09-08T15:16:11.888Z,9.63
2017-09-08T15:18:39.323Z,8.23
2017-09-08T15:21:06.780Z,8.37
2017-09-08T15:23:34.223Z,10.13
2017-09-08T15:26:01.655Z,9.27
2017-09-08T15:28:29.116Z,14.30
2017-09-08T15:30:56.648Z,8.10
2017-09-08T15:33:24.928Z,7.37
2017-09-08T15:35:52.679Z,8.93
2017-09-08T15:38:20.376Z,9.40
2017-09-08T15:40:47.925Z,9.43
2017-09-08T15:43:15.395Z,10.10
2017-09-08T15:45:43.181Z,14.17
2017-09-08T15:48:10.670Z,6.43
2017-09-08T15:50:38.265Z,8.93
2017-09-08T15:53:05.837Z,13.00
2017-09-08T15:55:33.314Z,11.53
2017-09-08T15:58:00.942Z,10.13
2017-09-08T16:00:28.493Z,12.10
2017-09-08T16:02:56.170Z,12.70
2017-09-08T16:05:23.708Z,7.30
2017-09-08T16:10:25.086Z,13.87
2017-09-08T16:12:52.591Z,17.20
2017-09-08T16:15:20.107Z,10.27
2017-09-08T16:17:48.391Z,11.90
2017-09-08T16:20:17.057Z,9.83
2017-09-08T16:22:44.777Z,9.27
2017-09-08T16:25:12.437Z,12.37
2017-09-08T16:27:39.960Z,8.17
2017-09-08T16:30:07.567Z,11.80
2017-09-08T16:32:35.133Z,10.50
2017-09-08T16:35:02.671Z,11.70
2017-09-08T16:37:30.126Z,6.97
2017-09-08T16:39:57.867Z,13.77
2017-09-08T16:42:25.462Z,13.73
2017-09-08T16:44:52.951Z,16.60
2017-09-08T16:47:20.416Z,9.20
2017-09-08T16:49:47.931Z,12.27
2017-09-08T16:52:15.704Z,13.93
2017-09-08T16:54:43.162Z,18.93
2017-09-08T16:57:10.685Z,14.67
2017-09-08T16:59:38.299Z,16.40
2017-09-08T17:02:05.822Z,11.83
2017-09-08T17:04:34.135Z,9.63
2017-09-08T17:07:01.605Z,14.53
2017-09-08T17:09:29.217Z,21.83
2017-09-08T17:11:56.666Z,12.70
2017-09-08T17:14:24.949Z,15.37
2017-09-08T17:16:52.383Z,22.70
2017-09-08T17:19:19.871Z,9.43
2017-09-08T17:21:48.076Z,11.50
2017-09-08T17:24:15.564Z,16.03
2017-09-08T17:26:43.168Z,18.60
2017-09-08T17:29:10.750Z,10.00
2017-09-08T17:31:38.311Z,10.90
2017-09-08T17:34:05.765Z,14.87
2017-09-08T17:36:33.431Z,14.37
2017-09-08T17:39:01.016Z,13.80
2017-09-08T17:41:28.653Z,13.17
2017-09-08T17:43:56.296Z,16.00
2017-09-08T17:46:23.780Z,17.50
2017-09-08T17:48:51.311Z,14.55
2017-09-08T17:51:19.579Z,12.52
2017-09-08T17:53:47.803Z,17.20
2017-09-08T17:56:15.284Z,13.23
2017-09-08T17:58:42.722Z,16.37
2017-09-08T18:01:10.187Z,14.93
2017-09-08T18:03:37.645Z,15.50
2017-09-08T18:06:05.086Z,14.00
2017-09-08T18:08:32.537Z,15.13
2017-09-08T18:11:00.026Z,11.07
2017-09-08T18:13:27.456Z,13.52
2017-09-08T18:15:54.933Z,11.95
2017-09-08T18:18:22.385Z,16.98
2017-09-08T18:20:49.829Z,18.73
2017-09-08T18:23:17.280Z,11.95
2017-09-08T18:25:44.725Z,17.50
2017-09-08T18:28:12.167Z,20.80
2017-09-08T18:30:40.374Z,17.60
2017-09-08T18:33:07.816Z,17.50
2017-09-08T18:35:35.248Z,19.30
2017-09-08T18:38:03.463Z,13.07
2017-09-08T18:40:30.909Z,11.70
2017-09-08T18:42:58.348Z,17.25
2017-09-08T18:45:26.550Z,17.48
2017-09-08T18:47:53.997Z,17.48
2017-09-08T18:50:21.441Z,17.23
2017-09-08T18:52:49.650Z,13.62
2017-09-08T18:55:17.102Z,17.90
2017-09-08T18:57:44.546Z,21.00
2017-09-08T19:00:11.984Z,16.08
2017-09-08T19:02:40.199Z,20.27
2017-09-08T19:05:07.649Z,16.10
2017-09-08T19:07:35.095Z,14.00
2017-09-08T19:10:02.542Z,26.52
2017-09-08T19:12:30.753Z,17.25
2017-09-08T19:14:58.186Z,16.60
2017-09-08T19:17:25.628Z,12.02
2017-09-08T19:19:53.836Z,17.73
2017-09-08T19:22:21.268Z,15.15
2017-09-08T19:24:48.719Z,16.30
2017-09-08T19:27:16.918Z,19.65
2017-09-08T19:29:44.368Z,13.00
2017-09-08T19:32:11.803Z,12.65
2017-09-08T19:34:40.012Z,13.35
2017-09-08T19:37:07.460Z,19.87
2017-09-08T19:39:34.898Z,14.15
2017-09-08T19:42:03.103Z,14.60
2017-09-08T19:44:30.539Z,15.35
2017-09-08T19:46:57.980Z,21.92
2017-09-08T19:49:26.198Z,22.87
2017-09-08T19:51:53.641Z,14.32
2017-09-08T19:54:21.094Z,17.00
2017-09-08T19:56:49.304Z,16.65
2017-09-08T19:59:16.751Z,22.10
2017-09-08T20:01:44.206Z,23.20
2017-09-08T20:04:11.661Z,18.42
2017-09-08T20:06:39.097Z,20.27
2017-09-08T20:09:07.327Z,18.50
2017-09-08T20:11:35.546Z,19.10
2017-09-08T20:14:02.983Z,21.35
2017-09-08T20:16:30.707Z,20.67
2017-09-08T20:18:58.162Z,15.20
2017-09-08T20:21:25.640Z,19.58
2017-09-08T20:23:53.081Z,19.23
2017-09-08T20:26:20.531Z,15.18
2017-09-08T20:28:47.978Z,15.55
2017-09-08T20:31:15.416Z,17.95
2017-09-08T20:33:42.860Z,20.98
2017-09-08T20:36:10.328Z,22.58
2017-09-08T20:38:37.770Z,22.30
2017-09-08T20:41:05.228Z,21.52
2017-09-08T20:43:33.475Z,18.27
2017-09-08T20:46:00.918Z,17.20
2017-09-08T20:48:28.435Z,15.00
2017-09-08T20:50:55.886Z,19.17
2017-09-08T20:53:23.328Z,23.00
2017-09-08T20:55:50.789Z,19.90
2017-09-08T20:58:18.252Z,23.20
2017-09-08T21:00:45.721Z,17.15
2017-09-08T21:03:13.218Z,17.12
2017-09-08T21:05:40.684Z,20.85
2017-09-08T21:08:08.175Z,29.05
2017-09-08T21:10:36.405Z,17.17
2017-09-08T21:13:03.913Z,18.48
2017-09-08T21:15:31.396Z,24.92
2017-09-08T21:17:58.856Z,18.20
2017-09-08T21:20:26.302Z,26.92
2017-09-08T21:22:54.540Z,19.83
2017-09-08T21:25:21.993Z,20.42
2017-09-08T21:27:49.674Z,20.55
2017-09-08T21:30:17.946Z,22.05
2017-09-08T21:32:45.459Z,24.65
2017-09-08T21:35:13.086Z,29.08
2017-09-08T21:37:41.360Z,19.20
2017-09-08T21:40:08.889Z,21.10
2017-09-08T21:42:36.368Z,20.80
2017-09-08T21:45:04.576Z,22.50
2017-09-08T21:47:32.087Z,20.05
2017-09-08T21:49:59.559Z,20.42
2017-09-08T21:52:27.816Z,24.45
2017-09-08T21:54:55.239Z,15.35
2017-09-08T21:57:22.696Z,20.45
2017-09-08T21:59:50.168Z,19.35
2017-09-08T22:02:17.712Z,20.12
2017-09-08T22:04:45.151Z,17.75
2017-09-08T22:07:13.371Z,16.20
2017-09-08T22:09:40.845Z,21.55
2017-09-08T22:12:08.552Z,18.62
2017-09-08T22:14:36.750Z,17.27
2017-09-08T22:17:04.343Z,25.75
2017-09-08T22:19:31.799Z,15.45
2017-09-08T22:21:59.297Z,17.95
2017-09-08T22:24:26.826Z,17.30
2017-09-08T22:26:54.533Z,15.25
2017-09-08T22:29:22.812Z,21.92
2017-09-08T22:31:51.015Z,22.25
2017-09-08T22:34:18.629Z,18.55
2017-09-08T22:36:46.943Z,30.35
2017-09-08T22:39:14.415Z,14.40
2017-09-08T22:41:41.946Z,15.13
2017-09-08T22:44:09.509Z,14.05
2017-09-08T22:46:37.046Z,17.55
2017-09-08T22:49:04.632Z,17.45
2017-09-08T22:51:33.035Z,18.55
2017-09-08T22:54:00.567Z,17.55
2017-09-08T22:56:28.134Z,15.60
2017-09-08T22:58:55.900Z,17.62
2017-09-08T23:01:23.511Z,24.23
2017-09-08T23:03:51.307Z,13.35
2017-09-08T23:06:19.678Z,15.02
2017-09-08T23:08:47.274Z,19.87
2017-09-08T23:11:15.036Z,17.90
2017-09-08T23:13:42.559Z,15.32
2017-09-08T23:16:10.238Z,18.12
2017-09-08T23:18:38.643Z,17.52
2017-09-08T23:21:06.144Z,14.98
2017-09-08T23:23:33.768Z,23.00
2017-09-08T23:26:01.356Z,20.10
2017-09-08T23:28:28.919Z,16.15
2017-09-08T23:30:56.665Z,15.98
2017-09-08T23:33:24.190Z,14.50
2017-09-08T23:35:51.828Z,16.40
2017-09-08T23:38:19.298Z,15.95
2017-09-08T23:40:47.817Z,15.50
2017-09-08T23:43:15.673Z,17.33
2017-09-08T23:45:43.350Z,17.62
2017-09-08T23:48:10.845Z,15.18
2017-09-08T23:50:38.316Z,16.35
2017-09-08T23:53:05.830Z,13.80
2017-09-08T23:55:33.269Z,21.40
2017-09-08T23:58:00.827Z,22.13
